sensor_id;sensor_type;location;lat;lon;timestamp;P1;durP1;ratioP1;P2;durP2;ratioP2
10963;SDS011;5534;48.784;9.190;2023-09-07T00:00:12;2.45;;;2.15;;
10963;SDS011;5534;48.784;9.190;2023-09-07T00:02:40;2.88;;;2.00;;
10963;SDS011;5534;48.784;9.190;2023-09-07T00:05:06;3.15;;;2.30;;
10963;SDS011;5534;48.784;9.190;2023-09-07T00:07:32;2.58;;;2.13;;
10963;SDS011;5534;48.784;9.190;2023-09-07T00:09:59;3.20;;;2.40;;
10963;SDS011;5534;48.784;9.190;2023-09-07T00:12:25;3.35;;;2.25;;
10963;SDS011;5534;48.784;9.190;2023-09-07T00:14:54;2.80;;;2.13;;
10963;SDS011;5534;48.784;9.190;2023-09-07T00:17:20;3.30;;;2.13;;
10963;SDS011;5534;48.784;9.190;2023-09-07T00:19:46;2.60;;;1.90;;
10963;SDS011;5534;48.784;9.190;2023-09-07T00:22:15;2.70;;;2.25;;
10963;SDS011;5534;48.784;9.190;2023-09-07T00:24:41;2.97;;;2.25;;
10963;SDS011;5534;48.784;9.190;2023-09-07T00:27:07;4.80;;;2.40;;
10963;SDS011;5534;48.784;9.190;2023-09-07T00:29:34;3.17;;;2.35;;
10963;SDS011;5534;48.784;9.190;2023-09-07T00:32:00;3.45;;;2.65;;
10963;SDS011;5534;48.784;9.190;2023-09-07T00:34:27;3.58;;;2.25;;
10963;SDS011;5534;48.784;9.190;2023-09-07T00:36:52;3.00;;;2.53;;
10963;SDS011;5534;48.784;9.190;2023-09-07T00:39:18;4.95;;;2.22;;
10963;SDS011;5534;48.784;9.190;2023-09-07T00:41:44;3.88;;;2.70;;
10963;SDS011;5534;48.784;9.190;2023-09-07T00:44:09;3.17;;;2.65;;
10963;SDS011;5534;48.784;9.190;2023-09-07T00:46:35;3.88;;;2.80;;
10963;SDS011;5534;48.784;9.190;2023-09-07T00:49:01;3.88;;;2.72;;
10963;SDS011;5534;48.784;9.190;2023-09-07T00:51:29;5.10;;;3.35;;
10963;SDS011;5534;48.784;9.190;2023-09-07T00:53:56;3.92;;;2.72;;
10963;SDS011;5534;48.784;9.190;2023-09-07T00:56:22;4.88;;;2.70;;
10963;SDS011;5534;48.784;9.190;2023-09-07T00:58:52;5.80;;;3.47;;
10963;SDS011;5534;48.784;9.190;2023-09-07T01:01:19;4.78;;;2.90;;
10963;SDS011;5534;48.784;9.190;2023-09-07T01:03:49;4.70;;;3.05;;
10963;SDS011;5534;48.784;9.190;2023-09-07T01:06:17;4.75;;;2.92;;
10963;SDS011;5534;48.784;9.190;2023-09-07T01:08:49;4.70;;;2.90;;
10963;SDS011;5534;48.784;9.190;2023-09-07T01:11:17;3.00;;;2.67;;
10963;SDS011;5534;48.784;9.190;2023-09-07T01:13:51;3.92;;;2.90;;
10963;SDS011;5534;48.784;9.190;2023-09-07T01:16:19;6.00;;;3.33;;
10963;SDS011;5534;48.784;9.190;2023-09-07T01:18:46;4.38;;;2.92;;
10963;SDS011;5534;48.784;9.190;2023-09-07T01:21:12;3.58;;;2.75;;
10963;SDS011;5534;48.784;9.190;2023-09-07T01:23:40;3.65;;;2.95;;
10963;SDS011;5534;48.784;9.190;2023-09-07T01:26:07;3.90;;;2.78;;
10963;SDS011;5534;48.784;9.190;2023-09-07T01:28:34;3.50;;;2.65;;
10963;SDS011;5534;48.784;9.190;2023-09-07T01:31:00;3.22;;;2.70;;
10963;SDS011;5534;48.784;9.190;2023-09-07T01:33:29;5.32;;;2.65;;
10963;SDS011;5534;48.784;9.190;2023-09-07T01:35:55;5.20;;;3.03;;
10963;SDS011;5534;48.784;9.190;2023-09-07T01:38:21;4.10;;;2.83;;
10963;SDS011;5534;48.784;9.190;2023-09-07T01:40:47;3.03;;;2.55;;
10963;SDS011;5534;48.784;9.190;2023-09-07T01:43:13;6.25;;;2.45;;
10963;SDS011;5534;48.784;9.190;2023-09-07T01:45:39;3.80;;;2.85;;
10963;SDS011;5534;48.784;9.190;2023-09-07T01:48:09;2.92;;;2.53;;
10963;SDS011;5534;48.784;9.190;2023-09-07T01:50:36;5.95;;;2.70;;
10963;SDS011;5534;48.784;9.190;2023-09-07T01:53:02;3.58;;;2.88;;
10963;SDS011;5534;48.784;9.190;2023-09-07T01:55:30;4.85;;;2.53;;
10963;SDS011;5534;48.784;9.190;2023-09-07T01:57:56;3.15;;;2.53;;
10963;SDS011;5534;48.784;9.190;2023-09-07T02:00:22;2.88;;;2.58;;
10963;SDS011;5534;48.784;9.190;2023-09-07T02:02:47;3.47;;;2.70;;
10963;SDS011;5534;48.784;9.190;2023-09-07T02:05:13;5.22;;;2.60;;
10963;SDS011;5534;48.784;9.190;2023-09-07T02:07:39;2.97;;;2.60;;
10963;SDS011;5534;48.784;9.190;2023-09-07T02:10:05;2.67;;;2.47;;
10963;SDS011;5534;48.784;9.190;2023-09-07T02:12:31;2.67;;;2.47;;
10963;SDS011;5534;48.784;9.190;2023-09-07T02:15:01;3.58;;;2.20;;
10963;SDS011;5534;48.784;9.190;2023-09-07T02:17:28;3.78;;;2.45;;
10963;SDS011;5534;48.784;9.190;2023-09-07T02:19:54;2.75;;;2.40;;
10963;SDS011;5534;48.784;9.190;2023-09-07T02:22:19;3.33;;;2.22;;
10963;SDS011;5534;48.784;9.190;2023-09-07T02:24:48;3.67;;;2.63;;
10963;SDS011;5534;48.784;9.190;2023-09-07T02:27:14;3.42;;;2.80;;
10963;SDS011;5534;48.784;9.190;2023-09-07T02:29:40;3.08;;;2.30;;
10963;SDS011;5534;48.784;9.190;2023-09-07T02:32:05;6.25;;;2.70;;
10963;SDS011;5534;48.784;9.190;2023-09-07T02:34:32;2.92;;;2.60;;
10963;SDS011;5534;48.784;9.190;2023-09-07T02:37:01;4.35;;;2.97;;
10963;SDS011;5534;48.784;9.190;2023-09-07T02:39:30;3.75;;;2.70;;
10963;SDS011;5534;48.784;9.190;2023-09-07T02:41:56;7.22;;;3.00;;
10963;SDS011;5534;48.784;9.190;2023-09-07T02:44:23;4.53;;;2.78;;
10963;SDS011;5534;48.784;9.190;2023-09-07T02:46:48;4.93;;;3.03;;
10963;SDS011;5534;48.784;9.190;2023-09-07T02:49:14;5.05;;;2.88;;
10963;SDS011;5534;48.784;9.190;2023-09-07T02:51:40;4.90;;;2.72;;
10963;SDS011;5534;48.784;9.190;2023-09-07T02:54:06;5.57;;;2.70;;
10963;SDS011;5534;48.784;9.190;2023-09-07T02:56:31;3.40;;;2.63;;
10963;SDS011;5534;48.784;9.190;2023-09-07T02:58:57;5.20;;;2.90;;
10963;SDS011;5534;48.784;9.190;2023-09-07T03:01:23;4.85;;;3.05;;
10963;SDS011;5534;48.784;9.190;2023-09-07T03:03:51;4.30;;;2.67;;
10963;SDS011;5534;48.784;9.190;2023-09-07T03:06:17;3.42;;;2.90;;
10963;SDS011;5534;48.784;9.190;2023-09-07T03:08:43;3.63;;;2.70;;
10963;SDS011;5534;48.784;9.190;2023-09-07T03:11:09;4.35;;;3.03;;
10963;SDS011;5534;48.784;9.190;2023-09-07T03:13:35;4.03;;;3.10;;
10963;SDS011;5534;48.784;9.190;2023-09-07T03:16:02;6.07;;;3.22;;
10963;SDS011;5534;48.784;9.190;2023-09-07T03:18:28;5.32;;;3.10;;
10963;SDS011;5534;48.784;9.190;2023-09-07T03:20:55;3.75;;;2.90;;
10963;SDS011;5534;48.784;9.190;2023-09-07T03:23:23;5.38;;;2.85;;
10963;SDS011;5534;48.784;9.190;2023-09-07T03:25:49;5.40;;;2.90;;
10963;SDS011;5534;48.784;9.190;2023-09-07T03:28:14;4.35;;;3.38;;
10963;SDS011;5534;48.784;9.190;2023-09-07T03:30:40;4.57;;;3.10;;
10963;SDS011;5534;48.784;9.190;2023-09-07T03:33:06;5.28;;;2.90;;
10963;SDS011;5534;48.784;9.190;2023-09-07T03:35:32;7.07;;;3.10;;
10963;SDS011;5534;48.784;9.190;2023-09-07T03:37:58;5.30;;;3.20;;
10963;SDS011;5534;48.784;9.190;2023-09-07T03:40:24;5.53;;;3.17;;
10963;SDS011;5534;48.784;9.190;2023-09-07T03:42:50;4.75;;;3.33;;
10963;SDS011;5534;48.784;9.190;2023-09-07T03:45:16;5.05;;;3.03;;
10963;SDS011;5534;48.784;9.190;2023-09-07T03:47:42;4.75;;;2.83;;
10963;SDS011;5534;48.784;9.190;2023-09-07T03:50:09;6.32;;;3.63;;
10963;SDS011;5534;48.784;9.190;2023-09-07T03:52:36;3.63;;;3.05;;
10963;SDS011;5534;48.784;9.190;2023-09-07T03:55:01;3.95;;;3.08;;
10963;SDS011;5534;48.784;9.190;2023-09-07T03:57:28;4.90;;;2.50;;
10963;SDS011;5534;48.784;9.190;2023-09-07T03:59:54;3.60;;;2.75;;
10963;SDS011;5534;48.784;9.190;2023-09-07T04:02:21;5.53;;;2.90;;
10963;SDS011;5534;48.784;9.190;2023-09-07T04:04:48;3.20;;;2.50;;
10963;SDS011;5534;48.784;9.190;2023-09-07T04:07:14;4.00;;;2.70;;
10963;SDS011;5534;48.784;9.190;2023-09-07T04:09:40;3.35;;;2.70;;
10963;SDS011;5534;48.784;9.190;2023-09-07T04:12:06;5.20;;;3.00;;
10963;SDS011;5534;48.784;9.190;2023-09-07T04:14:32;3.05;;;2.60;;
10963;SDS011;5534;48.784;9.190;2023-09-07T04:16:58;3.97;;;2.70;;
10963;SDS011;5534;48.784;9.190;2023-09-07T04:19:24;3.83;;;3.15;;
10963;SDS011;5534;48.784;9.190;2023-09-07T04:21:49;4.32;;;3.00;;
10963;SDS011;5534;48.784;9.190;2023-09-07T04:24:16;3.45;;;2.80;;
10963;SDS011;5534;48.784;9.190;2023-09-07T04:26:43;3.13;;;2.83;;
10963;SDS011;5534;48.784;9.190;2023-09-07T04:29:08;4.40;;;3.10;;
10963;SDS011;5534;48.784;9.190;2023-09-07T04:31:34;3.95;;;2.83;;
10963;SDS011;5534;48.784;9.190;2023-09-07T04:34:00;4.55;;;2.90;;
10963;SDS011;5534;48.784;9.190;2023-09-07T04:36:28;4.03;;;3.63;;
10963;SDS011;5534;48.784;9.190;2023-09-07T04:38:53;3.90;;;3.15;;
10963;SDS011;5534;48.784;9.190;2023-09-07T04:41:19;4.68;;;3.10;;
10963;SDS011;5534;48.784;9.190;2023-09-07T04:43:45;5.55;;;3.75;;
10963;SDS011;5534;48.784;9.190;2023-09-07T04:46:11;4.53;;;3.20;;
10963;SDS011;5534;48.784;9.190;2023-09-07T04:48:38;5.80;;;3.70;;
10963;SDS011;5534;48.784;9.190;2023-09-07T04:51:06;4.95;;;3.28;;
10963;SDS011;5534;48.784;9.190;2023-09-07T04:53:33;4.93;;;3.70;;
10963;SDS011;5534;48.784;9.190;2023-09-07T04:56:01;4.35;;;3.60;;
10963;SDS011;5534;48.784;9.190;2023-09-07T04:58:27;4.25;;;3.63;;
10963;SDS011;5534;48.784;9.190;2023-09-07T05:00:53;6.50;;;3.65;;
10963;SDS011;5534;48.784;9.190;2023-09-07T05:03:19;5.57;;;4.28;;
10963;SDS011;5534;48.784;9.190;2023-09-07T05:05:50;4.38;;;3.42;;
10963;SDS011;5534;48.784;9.190;2023-09-07T05:08:18;8.23;;;4.15;;
10963;SDS011;5534;48.784;9.190;2023-09-07T05:10:45;5.15;;;3.75;;
10963;SDS011;5534;48.784;9.190;2023-09-07T05:13:11;4.22;;;3.22;;
10963;SDS011;5534;48.784;9.190;2023-09-07T05:15:36;3.53;;;3.00;;
10963;SDS011;5534;48.784;9.190;2023-09-07T05:18:02;4.55;;;3.85;;
10963;SDS011;5534;48.784;9.190;2023-09-07T05:20:31;5.63;;;3.72;;
10963;SDS011;5534;48.784;9.190;2023-09-07T05:22:57;6.05;;;4.40;;
10963;SDS011;5534;48.784;9.190;2023-09-07T05:25:24;5.88;;;4.00;;
10963;SDS011;5534;48.784;9.190;2023-09-07T05:27:50;5.82;;;3.90;;
10963;SDS011;5534;48.784;9.190;2023-09-07T05:30:16;7.00;;;3.83;;
10963;SDS011;5534;48.784;9.190;2023-09-07T05:32:42;4.47;;;3.75;;
10963;SDS011;5534;48.784;9.190;2023-09-07T05:35:08;5.97;;;4.05;;
10963;SDS011;5534;48.784;9.190;2023-09-07T05:37:35;6.07;;;3.92;;
10963;SDS011;5534;48.784;9.190;2023-09-07T05:40:01;7.63;;;3.78;;
10963;SDS011;5534;48.784;9.190;2023-09-07T05:42:28;7.70;;;4.00;;
10963;SDS011;5534;48.784;9.190;2023-09-07T05:44:54;5.75;;;4.15;;
10963;SDS011;5534;48.784;9.190;2023-09-07T05:47:20;8.93;;;4.60;;
10963;SDS011;5534;48.784;9.190;2023-09-07T05:49:45;9.38;;;4.38;;
10963;SDS011;5534;48.784;9.190;2023-09-07T05:52:11;5.97;;;4.15;;
10963;SDS011;5534;48.784;9.190;2023-09-07T05:54:38;6.68;;;4.45;;
10963;SDS011;5534;48.784;9.190;2023-09-07T05:57:04;7.03;;;3.72;;
10963;SDS011;5534;48.784;9.190;2023-09-07T05:59:30;5.93;;;4.15;;
10963;SDS011;5534;48.784;9.190;2023-09-07T06:01:57;5.97;;;3.63;;
10963;SDS011;5534;48.784;9.190;2023-09-07T06:04:22;6.00;;;3.90;;
10963;SDS011;5534;48.784;9.190;2023-09-07T06:06:48;6.82;;;3.88;;
10963;SDS011;5534;48.784;9.190;2023-09-07T06:09:14;8.95;;;4.40;;
10963;SDS011;5534;48.784;9.190;2023-09-07T06:11:39;6.88;;;4.43;;
10963;SDS011;5534;48.784;9.190;2023-09-07T06:14:05;6.55;;;4.35;;
10963;SDS011;5534;48.784;9.190;2023-09-07T06:16:31;5.80;;;4.57;;
10963;SDS011;5534;48.784;9.190;2023-09-07T06:18:58;6.22;;;4.35;;
10963;SDS011;5534;48.784;9.190;2023-09-07T06:21:23;5.68;;;4.53;;
10963;SDS011;5534;48.784;9.190;2023-09-07T06:23:49;7.65;;;4.22;;
10963;SDS011;5534;48.784;9.190;2023-09-07T06:26:15;6.30;;;4.78;;
10963;SDS011;5534;48.784;9.190;2023-09-07T06:28:43;6.05;;;4.95;;
10963;SDS011;5534;48.784;9.190;2023-09-07T06:31:08;11.98;;;9.48;;
10963;SDS011;5534;48.784;9.190;2023-09-07T06:33:34;8.25;;;5.15;;
10963;SDS011;5534;48.784;9.190;2023-09-07T06:36:00;8.85;;;4.68;;
10963;SDS011;5534;48.784;9.190;2023-09-07T06:38:29;5.38;;;4.38;;
10963;SDS011;5534;48.784;9.190;2023-09-07T06:40:54;6.95;;;4.90;;
10963;SDS011;5534;48.784;9.190;2023-09-07T06:43:20;7.28;;;5.00;;
10963;SDS011;5534;48.784;9.190;2023-09-07T06:45:46;7.82;;;4.68;;
10963;SDS011;5534;48.784;9.190;2023-09-07T06:48:11;7.63;;;4.75;;
10963;SDS011;5534;48.784;9.190;2023-09-07T06:50:37;6.70;;;5.47;;
10963;SDS011;5534;48.784;9.190;2023-09-07T06:53:03;7.82;;;5.35;;
10963;SDS011;5534;48.784;9.190;2023-09-07T06:55:29;10.13;;;6.53;;
10963;SDS011;5534;48.784;9.190;2023-09-07T06:57:55;14.88;;;6.63;;
10963;SDS011;5534;48.784;9.190;2023-09-07T07:00:21;11.65;;;6.93;;
10963;SDS011;5534;48.784;9.190;2023-09-07T07:02:47;10.70;;;6.63;;
10963;SDS011;5534;48.784;9.190;2023-09-07T07:05:12;8.90;;;6.55;;
10963;SDS011;5534;48.784;9.190;2023-09-07T07:07:38;10.88;;;5.85;;
10963;SDS011;5534;48.784;9.190;2023-09-07T07:10:05;7.18;;;5.43;;
10963;SDS011;5534;48.784;9.190;2023-09-07T07:12:31;8.43;;;6.10;;
10963;SDS011;5534;48.784;9.190;2023-09-07T07:15:00;8.95;;;5.57;;
10963;SDS011;5534;48.784;9.190;2023-09-07T07:17:27;9.95;;;6.03;;
10963;SDS011;5534;48.784;9.190;2023-09-07T07:19:53;12.30;;;5.90;;
10963;SDS011;5534;48.784;9.190;2023-09-07T07:22:18;9.25;;;6.40;;
10963;SDS011;5534;48.784;9.190;2023-09-07T07:24:45;10.88;;;6.30;;
10963;SDS011;5534;48.784;9.190;2023-09-07T07:27:11;11.73;;;6.05;;
10963;SDS011;5534;48.784;9.190;2023-09-07T07:29:36;9.15;;;5.68;;
10963;SDS011;5534;48.784;9.190;2023-09-07T07:32:02;8.38;;;5.15;;
10963;SDS011;5534;48.784;9.190;2023-09-07T07:34:29;11.80;;;5.30;;
10963;SDS011;5534;48.784;9.190;2023-09-07T07:36:54;9.35;;;5.78;;
10963;SDS011;5534;48.784;9.190;2023-09-07T07:39:22;9.52;;;5.53;;
10963;SDS011;5534;48.784;9.190;2023-09-07T07:41:48;9.35;;;4.70;;
10963;SDS011;5534;48.784;9.190;2023-09-07T07:44:14;7.80;;;5.05;;
10963;SDS011;5534;48.784;9.190;2023-09-07T07:46:39;12.20;;;5.05;;
10963;SDS011;5534;48.784;9.190;2023-09-07T07:49:05;7.50;;;4.30;;
10963;SDS011;5534;48.784;9.190;2023-09-07T07:51:31;6.93;;;5.15;;
10963;SDS011;5534;48.784;9.190;2023-09-07T07:53:57;6.60;;;4.15;;
10963;SDS011;5534;48.784;9.190;2023-09-07T07:56:23;9.10;;;5.28;;
10963;SDS011;5534;48.784;9.190;2023-09-07T07:58:49;7.95;;;4.68;;
10963;SDS011;5534;48.784;9.190;2023-09-07T08:01:15;12.40;;;5.78;;
10963;SDS011;5534;48.784;9.190;2023-09-07T08:03:42;9.00;;;4.40;;
10963;SDS011;5534;48.784;9.190;2023-09-07T08:06:08;8.63;;;4.80;;
10963;SDS011;5534;48.784;9.190;2023-09-07T08:08:35;11.35;;;4.30;;
10963;SDS011;5534;48.784;9.190;2023-09-07T08:11:02;7.13;;;4.18;;
10963;SDS011;5534;48.784;9.190;2023-09-07T08:13:33;6.93;;;4.10;;
10963;SDS011;5534;48.784;9.190;2023-09-07T08:16:02;8.43;;;4.10;;
10963;SDS011;5534;48.784;9.190;2023-09-07T08:18:29;5.55;;;3.83;;
10963;SDS011;5534;48.784;9.190;2023-09-07T08:20:57;5.45;;;4.25;;
10963;SDS011;5534;48.784;9.190;2023-09-07T08:23:23;5.45;;;3.95;;
10963;SDS011;5534;48.784;9.190;2023-09-07T08:25:52;4.63;;;3.78;;
10963;SDS011;5534;48.784;9.190;2023-09-07T08:28:19;3.85;;;3.47;;
10963;SDS011;5534;48.784;9.190;2023-09-07T08:30:50;10.38;;;4.88;;
10963;SDS011;5534;48.784;9.190;2023-09-07T08:33:20;4.38;;;3.70;;
10963;SDS011;5534;48.784;9.190;2023-09-07T08:35:53;6.65;;;3.72;;
10963;SDS011;5534;48.784;9.190;2023-09-07T08:38:20;6.20;;;3.90;;
10963;SDS011;5534;48.784;9.190;2023-09-07T08:40:50;4.63;;;3.60;;
10963;SDS011;5534;48.784;9.190;2023-09-07T08:43:19;10.05;;;4.43;;
10963;SDS011;5534;48.784;9.190;2023-09-07T08:45:54;8.27;;;4.15;;
10963;SDS011;5534;48.784;9.190;2023-09-07T08:48:25;7.40;;;3.85;;
10963;SDS011;5534;48.784;9.190;2023-09-07T08:50:52;3.72;;;3.40;;
10963;SDS011;5534;48.784;9.190;2023-09-07T08:53:19;7.53;;;4.05;;
10963;SDS011;5534;48.784;9.190;2023-09-07T08:55:46;5.60;;;3.65;;
10963;SDS011;5534;48.784;9.190;2023-09-07T08:58:13;5.25;;;3.75;;
10963;SDS011;5534;48.784;9.190;2023-09-07T09:00:39;8.55;;;4.40;;
10963;SDS011;5534;48.784;9.190;2023-09-07T09:03:08;5.80;;;4.40;;
10963;SDS011;5534;48.784;9.190;2023-09-07T09:05:35;9.00;;;4.45;;
10963;SDS011;5534;48.784;9.190;2023-09-07T09:08:04;3.67;;;3.25;;
10963;SDS011;5534;48.784;9.190;2023-09-07T09:10:30;4.88;;;4.10;;
10963;SDS011;5534;48.784;9.190;2023-09-07T09:12:56;7.18;;;4.30;;
10963;SDS011;5534;48.784;9.190;2023-09-07T09:15:25;4.68;;;4.15;;
10963;SDS011;5534;48.784;9.190;2023-09-07T09:17:52;4.72;;;3.90;;
10963;SDS011;5534;48.784;9.190;2023-09-07T09:20:24;5.13;;;3.55;;
10963;SDS011;5534;48.784;9.190;2023-09-07T09:22:54;4.28;;;3.80;;
10963;SDS011;5534;48.784;9.190;2023-09-07T09:25:21;5.07;;;3.53;;
10963;SDS011;5534;48.784;9.190;2023-09-07T09:27:47;6.40;;;3.33;;
10963;SDS011;5534;48.784;9.190;2023-09-07T09:30:14;5.57;;;4.18;;
10963;SDS011;5534;48.784;9.190;2023-09-07T09:32:44;5.25;;;4.30;;
10963;SDS011;5534;48.784;9.190;2023-09-07T09:35:09;4.38;;;3.88;;
10963;SDS011;5534;48.784;9.190;2023-09-07T09:37:45;5.30;;;3.97;;
10963;SDS011;5534;48.784;9.190;2023-09-07T09:40:14;4.60;;;4.20;;
10963;SDS011;5534;48.784;9.190;2023-09-07T09:42:42;7.63;;;4.93;;
10963;SDS011;5534;48.784;9.190;2023-09-07T09:45:09;4.05;;;3.65;;
10963;SDS011;5534;48.784;9.190;2023-09-07T09:47:40;4.68;;;3.70;;
10963;SDS011;5534;48.784;9.190;2023-09-07T09:50:09;4.38;;;3.78;;
10963;SDS011;5534;48.784;9.190;2023-09-07T09:52:37;4.57;;;3.72;;
10963;SDS011;5534;48.784;9.190;2023-09-07T09:55:04;4.72;;;4.00;;
10963;SDS011;5534;48.784;9.190;2023-09-07T09:57:34;5.85;;;4.20;;
10963;SDS011;5534;48.784;9.190;2023-09-07T10:00:00;5.30;;;4.47;;
10963;SDS011;5534;48.784;9.190;2023-09-07T10:02:35;7.45;;;4.60;;
10963;SDS011;5534;48.784;9.190;2023-09-07T10:05:04;8.80;;;5.07;;
10963;SDS011;5534;48.784;9.190;2023-09-07T10:07:42;8.93;;;4.60;;
10963;SDS011;5534;48.784;9.190;2023-09-07T10:10:19;4.22;;;3.83;;
10963;SDS011;5534;48.784;9.190;2023-09-07T10:12:45;7.00;;;4.32;;
10963;SDS011;5534;48.784;9.190;2023-09-07T10:15:23;5.10;;;4.30;;
10963;SDS011;5534;48.784;9.190;2023-09-07T10:17:50;8.07;;;4.50;;
10963;SDS011;5534;48.784;9.190;2023-09-07T10:20:27;5.22;;;4.18;;
10963;SDS011;5534;48.784;9.190;2023-09-07T10:23:02;4.68;;;4.10;;
10963;SDS011;5534;48.784;9.190;2023-09-07T10:25:29;5.40;;;3.72;;
10963;SDS011;5534;48.784;9.190;2023-09-07T10:27:57;7.10;;;4.30;;
10963;SDS011;5534;48.784;9.190;2023-09-07T10:30:24;6.00;;;4.03;;
10963;SDS011;5534;48.784;9.190;2023-09-07T10:32:50;4.18;;;3.75;;
10963;SDS011;5534;48.784;9.190;2023-09-07T10:35:18;6.35;;;4.40;;
10963;SDS011;5534;48.784;9.190;2023-09-07T10:37:47;4.70;;;4.05;;
10963;SDS011;5534;48.784;9.190;2023-09-07T10:40:18;7.10;;;4.53;;
10963;SDS011;5534;48.784;9.190;2023-09-07T10:42:45;5.75;;;4.50;;
10963;SDS011;5534;48.784;9.190;2023-09-07T10:45:11;4.80;;;4.25;;
10963;SDS011;5534;48.784;9.190;2023-09-07T10:47:40;5.40;;;4.38;;
10963;SDS011;5534;48.784;9.190;2023-09-07T10:50:09;4.32;;;3.88;;
10963;SDS011;5534;48.784;9.190;2023-09-07T10:52:36;7.57;;;4.32;;
10963;SDS011;5534;48.784;9.190;2023-09-07T10:55:01;5.90;;;4.25;;
10963;SDS011;5534;48.784;9.190;2023-09-07T10:57:27;5.72;;;4.45;;
10963;SDS011;5534;48.784;9.190;2023-09-07T10:59:53;5.32;;;3.92;;
10963;SDS011;5534;48.784;9.190;2023-09-07T11:02:20;4.43;;;4.03;;
10963;SDS011;5534;48.784;9.190;2023-09-07T11:04:46;5.43;;;4.10;;
10963;SDS011;5534;48.784;9.190;2023-09-07T11:07:12;4.85;;;3.78;;
10963;SDS011;5534;48.784;9.190;2023-09-07T11:09:41;7.60;;;4.63;;
10963;SDS011;5534;48.784;9.190;2023-09-07T11:12:07;4.55;;;3.80;;
10963;SDS011;5534;48.784;9.190;2023-09-07T11:14:38;6.72;;;3.90;;
10963;SDS011;5534;48.784;9.190;2023-09-07T11:17:05;4.47;;;3.83;;
10963;SDS011;5534;48.784;9.190;2023-09-07T11:19:31;9.20;;;4.07;;
10963;SDS011;5534;48.784;9.190;2023-09-07T11:21:58;7.82;;;4.55;;
10963;SDS011;5534;48.784;9.190;2023-09-07T11:24:24;4.60;;;4.15;;
10963;SDS011;5534;48.784;9.190;2023-09-07T11:26:51;5.07;;;4.13;;
10963;SDS011;5534;48.784;9.190;2023-09-07T11:29:17;6.72;;;4.32;;
10963;SDS011;5534;48.784;9.190;2023-09-07T11:31:46;5.90;;;4.13;;
10963;SDS011;5534;48.784;9.190;2023-09-07T11:34:13;8.25;;;6.70;;
10963;SDS011;5534;48.784;9.190;2023-09-07T11:36:40;5.63;;;4.68;;
10963;SDS011;5534;48.784;9.190;2023-09-07T11:39:07;5.93;;;3.97;;
10963;SDS011;5534;48.784;9.190;2023-09-07T11:41:42;4.38;;;3.85;;
10963;SDS011;5534;48.784;9.190;2023-09-07T11:44:08;5.25;;;4.00;;
10963;SDS011;5534;48.784;9.190;2023-09-07T11:46:35;4.53;;;3.70;;
10963;SDS011;5534;48.784;9.190;2023-09-07T11:49:01;6.07;;;4.05;;
10963;SDS011;5534;48.784;9.190;2023-09-07T11:51:27;5.05;;;3.72;;
10963;SDS011;5534;48.784;9.190;2023-09-07T11:53:53;4.78;;;3.30;;
10963;SDS011;5534;48.784;9.190;2023-09-07T11:56:18;4.03;;;3.58;;
10963;SDS011;5534;48.784;9.190;2023-09-07T11:58:44;7.07;;;4.85;;
10963;SDS011;5534;48.784;9.190;2023-09-07T12:01:10;4.70;;;4.15;;
10963;SDS011;5534;48.784;9.190;2023-09-07T12:03:36;5.57;;;4.50;;
10963;SDS011;5534;48.784;9.190;2023-09-07T12:06:02;4.55;;;3.70;;
10963;SDS011;5534;48.784;9.190;2023-09-07T12:08:28;3.50;;;3.20;;
10963;SDS011;5534;48.784;9.190;2023-09-07T12:10:53;4.18;;;3.25;;
10963;SDS011;5534;48.784;9.190;2023-09-07T12:13:19;5.82;;;3.83;;
10963;SDS011;5534;48.784;9.190;2023-09-07T12:15:45;4.68;;;4.05;;
10963;SDS011;5534;48.784;9.190;2023-09-07T12:18:10;5.07;;;3.70;;
10963;SDS011;5534;48.784;9.190;2023-09-07T12:20:36;4.65;;;3.50;;
10963;SDS011;5534;48.784;9.190;2023-09-07T12:23:02;4.30;;;3.72;;
10963;SDS011;5534;48.784;9.190;2023-09-07T12:25:28;5.55;;;3.83;;
10963;SDS011;5534;48.784;9.190;2023-09-07T12:27:54;6.78;;;2.97;;
10963;SDS011;5534;48.784;9.190;2023-09-07T12:30:21;5.20;;;3.55;;
10963;SDS011;5534;48.784;9.190;2023-09-07T12:32:49;3.70;;;3.20;;
10963;SDS011;5534;48.784;9.190;2023-09-07T12:35:16;4.78;;;3.53;;
10963;SDS011;5534;48.784;9.190;2023-09-07T12:37:42;4.20;;;3.65;;
10963;SDS011;5534;48.784;9.190;2023-09-07T12:40:08;4.10;;;3.70;;
10963;SDS011;5534;48.784;9.190;2023-09-07T12:42:44;6.22;;;3.58;;
10963;SDS011;5534;48.784;9.190;2023-09-07T12:45:11;4.00;;;3.58;;
10963;SDS011;5534;48.784;9.190;2023-09-07T12:47:39;3.92;;;3.53;;
10963;SDS011;5534;48.784;9.190;2023-09-07T12:50:05;3.47;;;3.17;;
10963;SDS011;5534;48.784;9.190;2023-09-07T12:52:34;4.05;;;2.85;;
10963;SDS011;5534;48.784;9.190;2023-09-07T12:55:04;4.88;;;2.78;;
10963;SDS011;5534;48.784;9.190;2023-09-07T12:57:31;3.58;;;3.28;;
10963;SDS011;5534;48.784;9.190;2023-09-07T12:59:57;5.55;;;3.40;;
10963;SDS011;5534;48.784;9.190;2023-09-07T13:02:23;3.30;;;2.95;;
10963;SDS011;5534;48.784;9.190;2023-09-07T13:04:48;4.65;;;2.83;;
10963;SDS011;5534;48.784;9.190;2023-09-07T13:07:14;3.53;;;3.03;;
10963;SDS011;5534;48.784;9.190;2023-09-07T13:09:42;4.38;;;3.22;;
10963;SDS011;5534;48.784;9.190;2023-09-07T13:12:08;2.67;;;2.47;;
10963;SDS011;5534;48.784;9.190;2023-09-07T13:14:34;3.33;;;2.47;;
10963;SDS011;5534;48.784;9.190;2023-09-07T13:17:00;3.20;;;2.90;;
10963;SDS011;5534;48.784;9.190;2023-09-07T13:19:25;6.05;;;2.75;;
10963;SDS011;5534;48.784;9.190;2023-09-07T13:21:51;3.10;;;2.78;;
10963;SDS011;5534;48.784;9.190;2023-09-07T13:24:17;3.08;;;2.75;;
10963;SDS011;5534;48.784;9.190;2023-09-07T13:26:46;3.15;;;2.75;;
10963;SDS011;5534;48.784;9.190;2023-09-07T13:29:12;3.83;;;3.00;;
10963;SDS011;5534;48.784;9.190;2023-09-07T13:31:37;4.60;;;3.13;;
10963;SDS011;5534;48.784;9.190;2023-09-07T13:34:03;5.03;;;3.95;;
10963;SDS011;5534;48.784;9.190;2023-09-07T13:36:30;3.55;;;3.13;;
10963;SDS011;5534;48.784;9.190;2023-09-07T13:38:55;3.97;;;3.28;;
10963;SDS011;5534;48.784;9.190;2023-09-07T13:41:22;3.72;;;2.88;;
10963;SDS011;5534;48.784;9.190;2023-09-07T13:43:48;6.57;;;4.28;;
10963;SDS011;5534;48.784;9.190;2023-09-07T13:46:14;5.22;;;3.15;;
10963;SDS011;5534;48.784;9.190;2023-09-07T13:48:40;3.13;;;2.55;;
10963;SDS011;5534;48.784;9.190;2023-09-07T13:51:05;5.45;;;3.35;;
10963;SDS011;5534;48.784;9.190;2023-09-07T13:53:32;4.72;;;2.80;;
10963;SDS011;5534;48.784;9.190;2023-09-07T13:55:58;4.70;;;3.38;;
10963;SDS011;5534;48.784;9.190;2023-09-07T13:58:24;4.43;;;3.40;;
10963;SDS011;5534;48.784;9.190;2023-09-07T14:00:49;3.00;;;2.72;;
10963;SDS011;5534;48.784;9.190;2023-09-07T14:03:16;4.43;;;3.13;;
10963;SDS011;5534;48.784;9.190;2023-09-07T14:05:43;4.32;;;3.35;;
10963;SDS011;5534;48.784;9.190;2023-09-07T14:08:09;3.95;;;3.38;;
10963;SDS011;5534;48.784;9.190;2023-09-07T14:10:34;3.70;;;3.08;;
10963;SDS011;5534;48.784;9.190;2023-09-07T14:13:00;4.60;;;3.60;;
10963;SDS011;5534;48.784;9.190;2023-09-07T14:15:26;4.70;;;2.97;;
10963;SDS011;5534;48.784;9.190;2023-09-07T14:17:52;4.20;;;2.63;;
10963;SDS011;5534;48.784;9.190;2023-09-07T14:20:17;2.85;;;2.63;;
10963;SDS011;5534;48.784;9.190;2023-09-07T14:22:44;4.75;;;2.78;;
10963;SDS011;5534;48.784;9.190;2023-09-07T14:25:09;3.30;;;2.70;;
10963;SDS011;5534;48.784;9.190;2023-09-07T14:27:35;3.50;;;3.00;;
10963;SDS011;5534;48.784;9.190;2023-09-07T14:30:01;4.03;;;2.92;;
10963;SDS011;5534;48.784;9.190;2023-09-07T14:32:27;8.98;;;3.15;;
10963;SDS011;5534;48.784;9.190;2023-09-07T14:34:53;3.20;;;2.88;;
10963;SDS011;5534;48.784;9.190;2023-09-07T14:37:19;3.22;;;2.90;;
10963;SDS011;5534;48.784;9.190;2023-09-07T14:39:44;3.50;;;2.83;;
10963;SDS011;5534;48.784;9.190;2023-09-07T14:42:13;3.60;;;3.30;;
10963;SDS011;5534;48.784;9.190;2023-09-07T14:44:42;3.25;;;2.67;;
10963;SDS011;5534;48.784;9.190;2023-09-07T14:47:09;4.03;;;3.67;;
10963;SDS011;5534;48.784;9.190;2023-09-07T14:49:35;4.20;;;3.30;;
10963;SDS011;5534;48.784;9.190;2023-09-07T14:52:01;6.35;;;4.13;;
10963;SDS011;5534;48.784;9.190;2023-09-07T14:54:26;4.43;;;3.17;;
10963;SDS011;5534;48.784;9.190;2023-09-07T14:56:52;5.15;;;3.67;;